KDLS/DLS METAR and TAF weather

Enter ICAO airport designator
Station Type Date Time Source
KDLS METAR 2022/12/10 01:13 UTC NOAA

KDLS 100113Z AUTO 13004KT 3SM -SN OVC026 02/M01 A2977 RMK AO2 P0001 T00221006


Station Type Date Time Source
KDLS Decoded METAR 2022/12/10 01:13 UTC NOAA

THE DALLES MUNICIPAL AIRPORT , OR, United States (KDLS) 45-37N 121-10W 71M
Dec 09, 2022 - 08:13 PM EST / 2022.12.10 0113 UTC
Wind: from the SE (130 degrees) at 5 MPH (4 KT):0
Visibility: 3 mile(s):0
Sky conditions: overcast
Weather: light snow
Precipitation last hour: 0.01 inches
Temperature: 36.0 F (2.2 C)
Dew Point: 30.9 F (-0.6 C)
Relative Humidity: 81%
Pressure (altimeter): 29.77 in. Hg (1008 hPa)
ob: KDLS 100113Z AUTO 13004KT 3SM -SN OVC026 02/M01 A2977 RMK AO2 P0001 T00221006
cycle: 1

Station Type Date Time Source
KDLS TAF 2022/12/10 01:59 UTC NOAA

TAF
AMD KDLS 100059Z 1001/1024 VRB03KT 5SM -RASN SCT010 OVC035
TEMPO 1003/1006 3SM -RASN OVC010
FM100700 VRB03KT 5SM -RA BKN010 OVC050

Example: see airport list